sensor_id;sensor_type;location;lat;lon;timestamp;P1;durP1;ratioP1;P2;durP2;ratioP2
7104;SDS011;3594;42.152;24.714;2023-02-28T00:01:18;5.40;;;3.57;;
7104;SDS011;3594;42.152;24.714;2023-02-28T00:03:44;7.07;;;3.80;;
7104;SDS011;3594;42.152;24.714;2023-02-28T00:06:09;8.87;;;4.70;;
7104;SDS011;3594;42.152;24.714;2023-02-28T00:08:35;10.40;;;4.27;;
7104;SDS011;3594;42.152;24.714;2023-02-28T00:11:02;8.50;;;4.23;;
7104;SDS011;3594;42.152;24.714;2023-02-28T00:13:29;6.83;;;3.87;;
7104;SDS011;3594;42.152;24.714;2023-02-28T00:16:01;11.03;;;3.70;;
7104;SDS011;3594;42.152;24.714;2023-02-28T00:18:29;12.47;;;3.73;;
7104;SDS011;3594;42.152;24.714;2023-02-28T00:20:54;7.07;;;4.13;;
7104;SDS011;3594;42.152;24.714;2023-02-28T00:23:20;6.10;;;3.87;;
7104;SDS011;3594;42.152;24.714;2023-02-28T00:25:45;4.57;;;3.60;;
7104;SDS011;3594;42.152;24.714;2023-02-28T00:28:11;8.13;;;3.93;;
7104;SDS011;3594;42.152;24.714;2023-02-28T00:30:36;4.27;;;2.80;;
7104;SDS011;3594;42.152;24.714;2023-02-28T00:33:01;9.90;;;4.30;;
7104;SDS011;3594;42.152;24.714;2023-02-28T00:35:27;8.07;;;4.00;;
7104;SDS011;3594;42.152;24.714;2023-02-28T00:37:52;5.57;;;3.57;;
7104;SDS011;3594;42.152;24.714;2023-02-28T00:40:18;9.43;;;3.63;;
7104;SDS011;3594;42.152;24.714;2023-02-28T00:42:43;5.00;;;3.57;;
7104;SDS011;3594;42.152;24.714;2023-02-28T00:45:12;6.43;;;3.73;;
7104;SDS011;3594;42.152;24.714;2023-02-28T00:47:37;7.50;;;3.50;;
7104;SDS011;3594;42.152;24.714;2023-02-28T00:50:03;6.97;;;3.83;;
7104;SDS011;3594;42.152;24.714;2023-02-28T00:52:29;7.67;;;3.67;;
7104;SDS011;3594;42.152;24.714;2023-02-28T00:54:54;6.67;;;3.70;;
7104;SDS011;3594;42.152;24.714;2023-02-28T00:57:20;5.87;;;3.73;;
7104;SDS011;3594;42.152;24.714;2023-02-28T00:59:45;7.43;;;4.03;;
7104;SDS011;3594;42.152;24.714;2023-02-28T01:02:11;5.40;;;3.30;;
7104;SDS011;3594;42.152;24.714;2023-02-28T01:04:36;5.20;;;3.63;;
7104;SDS011;3594;42.152;24.714;2023-02-28T01:07:01;6.33;;;4.10;;
7104;SDS011;3594;42.152;24.714;2023-02-28T01:09:27;7.67;;;4.20;;
7104;SDS011;3594;42.152;24.714;2023-02-28T01:11:52;4.63;;;3.43;;
7104;SDS011;3594;42.152;24.714;2023-02-28T01:14:18;9.47;;;3.50;;
7104;SDS011;3594;42.152;24.714;2023-02-28T01:16:43;9.87;;;4.00;;
7104;SDS011;3594;42.152;24.714;2023-02-28T01:19:09;5.17;;;3.23;;
7104;SDS011;3594;42.152;24.714;2023-02-28T01:21:35;11.80;;;3.37;;
7104;SDS011;3594;42.152;24.714;2023-02-28T01:24:01;6.07;;;3.50;;
7104;SDS011;3594;42.152;24.714;2023-02-28T01:26:27;8.47;;;3.70;;
7104;SDS011;3594;42.152;24.714;2023-02-28T01:28:53;9.17;;;3.87;;
7104;SDS011;3594;42.152;24.714;2023-02-28T01:31:19;9.43;;;3.80;;
7104;SDS011;3594;42.152;24.714;2023-02-28T01:33:45;10.03;;;3.70;;
7104;SDS011;3594;42.152;24.714;2023-02-28T01:36:12;11.20;;;3.73;;
7104;SDS011;3594;42.152;24.714;2023-02-28T01:38:42;12.13;;;3.90;;
7104;SDS011;3594;42.152;24.714;2023-02-28T01:41:09;7.63;;;4.30;;
7104;SDS011;3594;42.152;24.714;2023-02-28T01:46:07;5.47;;;3.33;;
7104;SDS011;3594;42.152;24.714;2023-02-28T01:48:34;5.90;;;3.40;;
7104;SDS011;3594;42.152;24.714;2023-02-28T01:51:05;4.90;;;3.03;;
7104;SDS011;3594;42.152;24.714;2023-02-28T01:53:45;7.30;;;3.53;;
7104;SDS011;3594;42.152;24.714;2023-02-28T01:56:17;5.00;;;2.73;;
7104;SDS011;3594;42.152;24.714;2023-02-28T01:58:51;6.93;;;3.20;;
7104;SDS011;3594;42.152;24.714;2023-02-28T02:01:19;3.83;;;2.77;;
7104;SDS011;3594;42.152;24.714;2023-02-28T02:03:56;5.87;;;3.13;;
7104;SDS011;3594;42.152;24.714;2023-02-28T02:06:40;3.77;;;3.07;;
7104;SDS011;3594;42.152;24.714;2023-02-28T02:09:09;5.03;;;3.50;;
7104;SDS011;3594;42.152;24.714;2023-02-28T02:11:35;4.37;;;3.43;;
7104;SDS011;3594;42.152;24.714;2023-02-28T02:25:28;6.67;;;3.90;;
7104;SDS011;3594;42.152;24.714;2023-02-28T02:28:10;6.73;;;3.70;;
7104;SDS011;3594;42.152;24.714;2023-02-28T02:34:05;7.90;;;3.77;;
7104;SDS011;3594;42.152;24.714;2023-02-28T02:36:27;16.20;;;4.07;;
7104;SDS011;3594;42.152;24.714;2023-02-28T02:39:20;6.27;;;3.93;;
7104;SDS011;3594;42.152;24.714;2023-02-28T02:41:57;4.80;;;3.33;;
7104;SDS011;3594;42.152;24.714;2023-02-28T02:47:33;6.17;;;3.73;;
7104;SDS011;3594;42.152;24.714;2023-02-28T02:50:03;7.43;;;3.83;;
7104;SDS011;3594;42.152;24.714;2023-02-28T02:52:40;6.17;;;3.20;;
7104;SDS011;3594;42.152;24.714;2023-02-28T02:55:10;11.57;;;5.60;;
7104;SDS011;3594;42.152;24.714;2023-02-28T02:57:48;7.77;;;4.27;;
7104;SDS011;3594;42.152;24.714;2023-02-28T03:00:19;10.17;;;3.90;;
7104;SDS011;3594;42.152;24.714;2023-02-28T03:02:52;8.20;;;4.27;;
7104;SDS011;3594;42.152;24.714;2023-02-28T03:05:21;6.47;;;4.17;;
7104;SDS011;3594;42.152;24.714;2023-02-28T03:07:51;7.00;;;3.67;;
7104;SDS011;3594;42.152;24.714;2023-02-28T03:19:03;9.10;;;4.67;;
7104;SDS011;3594;42.152;24.714;2023-02-28T03:24:21;11.67;;;5.13;;
7104;SDS011;3594;42.152;24.714;2023-02-28T03:27:15;5.67;;;3.67;;
7104;SDS011;3594;42.152;24.714;2023-02-28T03:29:50;9.77;;;4.73;;
7104;SDS011;3594;42.152;24.714;2023-02-28T03:32:29;11.37;;;4.37;;
7104;SDS011;3594;42.152;24.714;2023-02-28T03:35:21;7.80;;;4.53;;
7104;SDS011;3594;42.152;24.714;2023-02-28T03:37:50;6.67;;;4.57;;
7104;SDS011;3594;42.152;24.714;2023-02-28T03:40:21;10.60;;;4.53;;
7104;SDS011;3594;42.152;24.714;2023-02-28T03:42:51;8.10;;;4.40;;
7104;SDS011;3594;42.152;24.714;2023-02-28T03:45:25;6.70;;;3.80;;
7104;SDS011;3594;42.152;24.714;2023-02-28T03:50:35;6.43;;;3.90;;
7104;SDS011;3594;42.152;24.714;2023-02-28T03:53:14;9.63;;;4.80;;
7104;SDS011;3594;42.152;24.714;2023-02-28T03:55:42;9.50;;;5.40;;
7104;SDS011;3594;42.152;24.714;2023-02-28T04:01:25;8.77;;;4.83;;
7104;SDS011;3594;42.152;24.714;2023-02-28T04:03:55;8.03;;;4.40;;
7104;SDS011;3594;42.152;24.714;2023-02-28T04:06:21;10.10;;;4.97;;
7104;SDS011;3594;42.152;24.714;2023-02-28T04:08:48;9.23;;;4.40;;
7104;SDS011;3594;42.152;24.714;2023-02-28T04:13:47;7.73;;;3.90;;
7104;SDS011;3594;42.152;24.714;2023-02-28T04:16:13;12.50;;;4.93;;
7104;SDS011;3594;42.152;24.714;2023-02-28T04:18:38;8.67;;;5.13;;
7104;SDS011;3594;42.152;24.714;2023-02-28T04:21:04;9.60;;;5.13;;
7104;SDS011;3594;42.152;24.714;2023-02-28T04:23:30;8.07;;;5.33;;
7104;SDS011;3594;42.152;24.714;2023-02-28T04:25:56;10.53;;;4.90;;
7104;SDS011;3594;42.152;24.714;2023-02-28T04:28:22;9.37;;;4.77;;
7104;SDS011;3594;42.152;24.714;2023-02-28T04:30:53;7.20;;;3.93;;
7104;SDS011;3594;42.152;24.714;2023-02-28T04:33:20;8.17;;;4.63;;
7104;SDS011;3594;42.152;24.714;2023-02-28T04:35:45;6.47;;;3.70;;
7104;SDS011;3594;42.152;24.714;2023-02-28T04:38:11;10.20;;;4.53;;
7104;SDS011;3594;42.152;24.714;2023-02-28T04:40:36;11.03;;;4.20;;
7104;SDS011;3594;42.152;24.714;2023-02-28T04:43:02;8.83;;;4.67;;
7104;SDS011;3594;42.152;24.714;2023-02-28T04:45:28;8.77;;;5.10;;
7104;SDS011;3594;42.152;24.714;2023-02-28T04:47:57;8.43;;;4.73;;
7104;SDS011;3594;42.152;24.714;2023-02-28T04:50:22;9.30;;;4.60;;
7104;SDS011;3594;42.152;24.714;2023-02-28T04:52:48;10.40;;;4.60;;
7104;SDS011;3594;42.152;24.714;2023-02-28T04:55:13;7.20;;;4.63;;
7104;SDS011;3594;42.152;24.714;2023-02-28T04:57:39;7.20;;;4.50;;
7104;SDS011;3594;42.152;24.714;2023-02-28T05:00:08;10.13;;;4.60;;
7104;SDS011;3594;42.152;24.714;2023-02-28T05:02:36;9.93;;;5.13;;
7104;SDS011;3594;42.152;24.714;2023-02-28T05:05:04;9.17;;;4.37;;
7104;SDS011;3594;42.152;24.714;2023-02-28T05:07:30;14.17;;;4.30;;
7104;SDS011;3594;42.152;24.714;2023-02-28T05:09:55;6.20;;;3.87;;
7104;SDS011;3594;42.152;24.714;2023-02-28T05:12:21;8.63;;;4.57;;
7104;SDS011;3594;42.152;24.714;2023-02-28T05:14:46;7.97;;;4.37;;
7104;SDS011;3594;42.152;24.714;2023-02-28T05:17:12;8.40;;;3.93;;
7104;SDS011;3594;42.152;24.714;2023-02-28T05:19:37;5.83;;;4.13;;
7104;SDS011;3594;42.152;24.714;2023-02-28T05:22:03;15.67;;;4.70;;
7104;SDS011;3594;42.152;24.714;2023-02-28T05:24:28;8.10;;;4.27;;
7104;SDS011;3594;42.152;24.714;2023-02-28T05:26:54;12.47;;;4.77;;
7104;SDS011;3594;42.152;24.714;2023-02-28T05:29:20;7.73;;;4.33;;
7104;SDS011;3594;42.152;24.714;2023-02-28T05:31:46;11.67;;;5.13;;
7104;SDS011;3594;42.152;24.714;2023-02-28T05:34:12;5.60;;;4.03;;
7104;SDS011;3594;42.152;24.714;2023-02-28T05:36:38;7.23;;;3.83;;
7104;SDS011;3594;42.152;24.714;2023-02-28T05:39:05;6.13;;;3.57;;
7104;SDS011;3594;42.152;24.714;2023-02-28T05:41:32;8.57;;;4.50;;
7104;SDS011;3594;42.152;24.714;2023-02-28T05:43:58;6.67;;;3.40;;
7104;SDS011;3594;42.152;24.714;2023-02-28T05:46:24;6.77;;;4.27;;
7104;SDS011;3594;42.152;24.714;2023-02-28T05:48:50;7.43;;;4.60;;
7104;SDS011;3594;42.152;24.714;2023-02-28T05:51:16;9.07;;;4.50;;
7104;SDS011;3594;42.152;24.714;2023-02-28T05:53:42;8.63;;;3.67;;
7104;SDS011;3594;42.152;24.714;2023-02-28T05:56:08;7.90;;;4.10;;
7104;SDS011;3594;42.152;24.714;2023-02-28T05:58:33;8.27;;;4.20;;
7104;SDS011;3594;42.152;24.714;2023-02-28T06:00:59;6.27;;;4.00;;
7104;SDS011;3594;42.152;24.714;2023-02-28T06:03:26;7.73;;;3.67;;
7104;SDS011;3594;42.152;24.714;2023-02-28T06:05:52;7.03;;;4.50;;
7104;SDS011;3594;42.152;24.714;2023-02-28T06:08:18;8.07;;;4.77;;
7104;SDS011;3594;42.152;24.714;2023-02-28T06:10:44;8.77;;;4.00;;
7104;SDS011;3594;42.152;24.714;2023-02-28T06:13:10;6.97;;;4.17;;
7104;SDS011;3594;42.152;24.714;2023-02-28T06:15:36;11.53;;;5.37;;
7104;SDS011;3594;42.152;24.714;2023-02-28T06:18:02;7.93;;;4.23;;
7104;SDS011;3594;42.152;24.714;2023-02-28T06:20:27;6.77;;;4.37;;
7104;SDS011;3594;42.152;24.714;2023-02-28T06:22:55;9.97;;;5.43;;
7104;SDS011;3594;42.152;24.714;2023-02-28T06:25:23;7.13;;;4.57;;
7104;SDS011;3594;42.152;24.714;2023-02-28T06:27:49;12.47;;;5.03;;
7104;SDS011;3594;42.152;24.714;2023-02-28T06:30:14;9.77;;;5.13;;
7104;SDS011;3594;42.152;24.714;2023-02-28T06:32:40;11.57;;;4.60;;
7104;SDS011;3594;42.152;24.714;2023-02-28T06:35:06;8.00;;;4.50;;
7104;SDS011;3594;42.152;24.714;2023-02-28T06:37:32;8.57;;;4.93;;
7104;SDS011;3594;42.152;24.714;2023-02-28T06:39:58;9.30;;;4.87;;
7104;SDS011;3594;42.152;24.714;2023-02-28T06:42:24;8.83;;;5.40;;
7104;SDS011;3594;42.152;24.714;2023-02-28T06:44:53;10.93;;;5.80;;
7104;SDS011;3594;42.152;24.714;2023-02-28T06:47:22;11.90;;;5.10;;
7104;SDS011;3594;42.152;24.714;2023-02-28T06:49:47;6.83;;;4.57;;
7104;SDS011;3594;42.152;24.714;2023-02-28T06:52:13;8.97;;;4.37;;
7104;SDS011;3594;42.152;24.714;2023-02-28T06:54:39;9.23;;;4.97;;
7104;SDS011;3594;42.152;24.714;2023-02-28T06:57:04;12.10;;;5.43;;
7104;SDS011;3594;42.152;24.714;2023-02-28T06:59:30;8.30;;;4.70;;
7104;SDS011;3594;42.152;24.714;2023-02-28T07:01:55;6.20;;;4.13;;
7104;SDS011;3594;42.152;24.714;2023-02-28T07:04:21;10.00;;;5.23;;
7104;SDS011;3594;42.152;24.714;2023-02-28T07:06:47;9.33;;;5.43;;
7104;SDS011;3594;42.152;24.714;2023-02-28T07:09:12;10.23;;;4.67;;
7104;SDS011;3594;42.152;24.714;2023-02-28T07:11:39;11.50;;;4.97;;
7104;SDS011;3594;42.152;24.714;2023-02-28T07:14:05;8.20;;;5.63;;
7104;SDS011;3594;42.152;24.714;2023-02-28T07:16:31;10.23;;;5.07;;
7104;SDS011;3594;42.152;24.714;2023-02-28T07:18:57;9.90;;;4.40;;
7104;SDS011;3594;42.152;24.714;2023-02-28T07:21:22;7.30;;;4.70;;
7104;SDS011;3594;42.152;24.714;2023-02-28T07:23:48;7.73;;;4.20;;
7104;SDS011;3594;42.152;24.714;2023-02-28T07:26:15;8.80;;;3.97;;
7104;SDS011;3594;42.152;24.714;2023-02-28T07:28:42;11.40;;;5.03;;
7104;SDS011;3594;42.152;24.714;2023-02-28T07:31:08;8.57;;;4.50;;
7104;SDS011;3594;42.152;24.714;2023-02-28T07:33:35;7.53;;;4.57;;
7104;SDS011;3594;42.152;24.714;2023-02-28T07:36:02;12.67;;;5.17;;
7104;SDS011;3594;42.152;24.714;2023-02-28T07:38:29;9.03;;;5.17;;
7104;SDS011;3594;42.152;24.714;2023-02-28T07:40:54;11.23;;;4.63;;
7104;SDS011;3594;42.152;24.714;2023-02-28T07:43:20;9.97;;;5.63;;
7104;SDS011;3594;42.152;24.714;2023-02-28T07:45:45;11.80;;;5.70;;
7104;SDS011;3594;42.152;24.714;2023-02-28T07:48:10;11.53;;;5.87;;
7104;SDS011;3594;42.152;24.714;2023-02-28T07:50:36;8.17;;;4.87;;
7104;SDS011;3594;42.152;24.714;2023-02-28T07:53:01;13.20;;;6.27;;
7104;SDS011;3594;42.152;24.714;2023-02-28T07:55:27;11.10;;;6.13;;
7104;SDS011;3594;42.152;24.714;2023-02-28T07:57:52;11.63;;;4.53;;
7104;SDS011;3594;42.152;24.714;2023-02-28T08:00:18;14.17;;;6.67;;
7104;SDS011;3594;42.152;24.714;2023-02-28T08:02:43;12.47;;;6.27;;
7104;SDS011;3594;42.152;24.714;2023-02-28T08:05:09;17.00;;;6.00;;
7104;SDS011;3594;42.152;24.714;2023-02-28T08:07:35;9.83;;;5.20;;
7104;SDS011;3594;42.152;24.714;2023-02-28T08:10:00;14.70;;;6.00;;
7104;SDS011;3594;42.152;24.714;2023-02-28T08:12:26;9.73;;;5.47;;
7104;SDS011;3594;42.152;24.714;2023-02-28T08:14:51;9.90;;;6.10;;
7104;SDS011;3594;42.152;24.714;2023-02-28T08:17:17;11.67;;;5.17;;
7104;SDS011;3594;42.152;24.714;2023-02-28T08:19:44;8.90;;;5.13;;
7104;SDS011;3594;42.152;24.714;2023-02-28T08:22:11;8.87;;;5.57;;
7104;SDS011;3594;42.152;24.714;2023-02-28T08:24:36;12.57;;;5.20;;
7104;SDS011;3594;42.152;24.714;2023-02-28T08:27:01;12.10;;;5.50;;
7104;SDS011;3594;42.152;24.714;2023-02-28T08:29:27;14.33;;;6.33;;
7104;SDS011;3594;42.152;24.714;2023-02-28T08:31:52;10.17;;;6.30;;
7104;SDS011;3594;42.152;24.714;2023-02-28T08:34:18;7.97;;;5.10;;
7104;SDS011;3594;42.152;24.714;2023-02-28T08:36:43;11.27;;;5.30;;
7104;SDS011;3594;42.152;24.714;2023-02-28T08:39:10;12.73;;;5.90;;
7104;SDS011;3594;42.152;24.714;2023-02-28T08:41:35;9.07;;;4.40;;
7104;SDS011;3594;42.152;24.714;2023-02-28T08:44:00;13.23;;;6.00;;
7104;SDS011;3594;42.152;24.714;2023-02-28T08:46:26;14.57;;;6.23;;
7104;SDS011;3594;42.152;24.714;2023-02-28T08:48:52;11.73;;;7.17;;
7104;SDS011;3594;42.152;24.714;2023-02-28T08:51:19;17.60;;;7.10;;
7104;SDS011;3594;42.152;24.714;2023-02-28T08:53:54;15.73;;;6.10;;
7104;SDS011;3594;42.152;24.714;2023-02-28T08:56:23;20.60;;;5.53;;
7104;SDS011;3594;42.152;24.714;2023-02-28T08:58:49;13.50;;;6.83;;
7104;SDS011;3594;42.152;24.714;2023-02-28T09:01:22;9.27;;;5.57;;
7104;SDS011;3594;42.152;24.714;2023-02-28T09:03:50;9.83;;;5.10;;
7104;SDS011;3594;42.152;24.714;2023-02-28T09:06:16;11.17;;;6.03;;
7104;SDS011;3594;42.152;24.714;2023-02-28T09:08:43;11.53;;;5.77;;
7104;SDS011;3594;42.152;24.714;2023-02-28T09:11:09;11.57;;;5.77;;
7104;SDS011;3594;42.152;24.714;2023-02-28T09:13:36;10.63;;;5.83;;
7104;SDS011;3594;42.152;24.714;2023-02-28T09:16:02;11.27;;;6.13;;
7104;SDS011;3594;42.152;24.714;2023-02-28T09:18:30;11.87;;;5.60;;
7104;SDS011;3594;42.152;24.714;2023-02-28T09:20:56;11.33;;;5.83;;
7104;SDS011;3594;42.152;24.714;2023-02-28T09:23:23;13.23;;;6.17;;
7104;SDS011;3594;42.152;24.714;2023-02-28T09:25:50;14.80;;;6.40;;
7104;SDS011;3594;42.152;24.714;2023-02-28T09:28:17;11.90;;;5.87;;
7104;SDS011;3594;42.152;24.714;2023-02-28T09:30:44;11.07;;;5.87;;
7104;SDS011;3594;42.152;24.714;2023-02-28T09:33:11;9.77;;;5.70;;
7104;SDS011;3594;42.152;24.714;2023-02-28T09:35:36;10.40;;;5.93;;
7104;SDS011;3594;42.152;24.714;2023-02-28T09:38:02;10.37;;;6.30;;
7104;SDS011;3594;42.152;24.714;2023-02-28T09:40:28;10.07;;;6.13;;
7104;SDS011;3594;42.152;24.714;2023-02-28T09:42:54;13.20;;;6.07;;
7104;SDS011;3594;42.152;24.714;2023-02-28T09:47:52;14.63;;;5.77;;
7104;SDS011;3594;42.152;24.714;2023-02-28T09:50:32;12.13;;;5.73;;
7104;SDS011;3594;42.152;24.714;2023-02-28T09:53:06;10.87;;;5.80;;
7104;SDS011;3594;42.152;24.714;2023-02-28T09:55:42;11.13;;;6.13;;
7104;SDS011;3594;42.152;24.714;2023-02-28T09:58:16;8.20;;;5.07;;
7104;SDS011;3594;42.152;24.714;2023-02-28T10:00:50;12.23;;;6.13;;
7104;SDS011;3594;42.152;24.714;2023-02-28T10:03:25;16.03;;;6.57;;
7104;SDS011;3594;42.152;24.714;2023-02-28T10:08:52;10.87;;;6.40;;
7104;SDS011;3594;42.152;24.714;2023-02-28T10:11:26;10.33;;;6.47;;
7104;SDS011;3594;42.152;24.714;2023-02-28T10:19:32;11.40;;;6.03;;
7104;SDS011;3594;42.152;24.714;2023-02-28T10:22:08;12.07;;;6.83;;
7104;SDS011;3594;42.152;24.714;2023-02-28T10:24:42;16.93;;;7.30;;
7104;SDS011;3594;42.152;24.714;2023-02-28T10:27:20;14.37;;;7.27;;
7104;SDS011;3594;42.152;24.714;2023-02-28T10:29:49;17.87;;;6.37;;
7104;SDS011;3594;42.152;24.714;2023-02-28T10:32:28;14.13;;;7.00;;
7104;SDS011;3594;42.152;24.714;2023-02-28T10:35:00;13.23;;;6.73;;
7104;SDS011;3594;42.152;24.714;2023-02-28T10:37:26;19.13;;;6.53;;
7104;SDS011;3594;42.152;24.714;2023-02-28T10:39:52;13.30;;;7.23;;
7104;SDS011;3594;42.152;24.714;2023-02-28T10:42:25;13.20;;;6.83;;
7104;SDS011;3594;42.152;24.714;2023-02-28T10:47:33;14.23;;;6.90;;
7104;SDS011;3594;42.152;24.714;2023-02-28T10:50:03;11.30;;;5.83;;
7104;SDS011;3594;42.152;24.714;2023-02-28T10:52:33;16.43;;;7.70;;
7104;SDS011;3594;42.152;24.714;2023-02-28T10:58:00;17.63;;;6.80;;
7104;SDS011;3594;42.152;24.714;2023-02-28T11:00:25;15.83;;;7.20;;
7104;SDS011;3594;42.152;24.714;2023-02-28T11:02:59;12.67;;;6.40;;
7104;SDS011;3594;42.152;24.714;2023-02-28T11:05:31;25.33;;;8.87;;
7104;SDS011;3594;42.152;24.714;2023-02-28T11:08:03;28.37;;;8.73;;
7104;SDS011;3594;42.152;24.714;2023-02-28T11:10:35;16.80;;;7.43;;
7104;SDS011;3594;42.152;24.714;2023-02-28T11:13:01;27.90;;;8.07;;
7104;SDS011;3594;42.152;24.714;2023-02-28T11:15:28;11.03;;;5.93;;
7104;SDS011;3594;42.152;24.714;2023-02-28T11:18:00;13.73;;;6.27;;
7104;SDS011;3594;42.152;24.714;2023-02-28T11:20:29;11.87;;;7.00;;
7104;SDS011;3594;42.152;24.714;2023-02-28T11:22:58;13.37;;;7.73;;
7104;SDS011;3594;42.152;24.714;2023-02-28T11:27:54;16.23;;;6.27;;
7104;SDS011;3594;42.152;24.714;2023-02-28T11:30:25;13.50;;;7.93;;
7104;SDS011;3594;42.152;24.714;2023-02-28T11:33:37;10.80;;;5.97;;
7104;SDS011;3594;42.152;24.714;2023-02-28T11:36:01;11.63;;;6.60;;
7104;SDS011;3594;42.152;24.714;2023-02-28T11:38:34;11.93;;;6.13;;
7104;SDS011;3594;42.152;24.714;2023-02-28T11:46:25;15.53;;;6.10;;
7104;SDS011;3594;42.152;24.714;2023-02-28T11:52:00;15.30;;;6.80;;
7104;SDS011;3594;42.152;24.714;2023-02-28T11:55:26;17.20;;;6.80;;
7104;SDS011;3594;42.152;24.714;2023-02-28T12:00:35;16.50;;;7.33;;
7104;SDS011;3594;42.152;24.714;2023-02-28T12:04:11;11.47;;;6.27;;
7104;SDS011;3594;42.152;24.714;2023-02-28T12:06:05;16.00;;;7.57;;
7104;SDS011;3594;42.152;24.714;2023-02-28T12:14:23;17.10;;;8.40;;
7104;SDS011;3594;42.152;24.714;2023-02-28T12:19:31;12.50;;;6.63;;
7104;SDS011;3594;42.152;24.714;2023-02-28T12:27:29;18.50;;;7.80;;
7104;SDS011;3594;42.152;24.714;2023-02-28T12:29:58;17.50;;;7.80;;
7104;SDS011;3594;42.152;24.714;2023-02-28T12:35:26;16.30;;;8.60;;
7104;SDS011;3594;42.152;24.714;2023-02-28T12:38:14;16.60;;;8.30;;
7104;SDS011;3594;42.152;24.714;2023-02-28T12:43:12;15.10;;;7.53;;
7104;SDS011;3594;42.152;24.714;2023-02-28T12:45:53;16.03;;;8.67;;
7104;SDS011;3594;42.152;24.714;2023-02-28T12:48:29;15.87;;;8.47;;
7104;SDS011;3594;42.152;24.714;2023-02-28T12:51:01;15.23;;;8.03;;
7104;SDS011;3594;42.152;24.714;2023-02-28T12:59:16;16.80;;;8.30;;
7104;SDS011;3594;42.152;24.714;2023-02-28T13:01:55;15.40;;;8.53;;
7104;SDS011;3594;42.152;24.714;2023-02-28T13:09:56;16.73;;;8.10;;
7104;SDS011;3594;42.152;24.714;2023-02-28T13:12:23;18.73;;;7.40;;
7104;SDS011;3594;42.152;24.714;2023-02-28T13:14:50;15.23;;;7.70;;
7104;SDS011;3594;42.152;24.714;2023-02-28T13:17:25;17.70;;;7.90;;
7104;SDS011;3594;42.152;24.714;2023-02-28T13:24:53;17.93;;;7.70;;
7104;SDS011;3594;42.152;24.714;2023-02-28T13:27:32;18.13;;;7.20;;
7104;SDS011;3594;42.152;24.714;2023-02-28T13:29:58;15.90;;;7.00;;
7104;SDS011;3594;42.152;24.714;2023-02-28T13:39:46;13.20;;;7.33;;
7104;SDS011;3594;42.152;24.714;2023-02-28T13:52:47;13.03;;;6.90;;
7104;SDS011;3594;42.152;24.714;2023-02-28T14:06:51;14.73;;;8.67;;
7104;SDS011;3594;42.152;24.714;2023-02-28T14:11:55;21.23;;;9.07;;
7104;SDS011;3594;42.152;24.714;2023-02-28T14:17:02;14.80;;;8.13;;
7104;SDS011;3594;42.152;24.714;2023-02-28T14:19:31;15.40;;;7.37;;
7104;SDS011;3594;42.152;24.714;2023-02-28T14:22:04;15.93;;;7.43;;
7104;SDS011;3594;42.152;24.714;2023-02-28T14:33:00;11.33;;;7.63;;
7104;SDS011;3594;42.152;24.714;2023-02-28T14:35:50;12.77;;;7.57;;
7104;SDS011;3594;42.152;24.714;2023-02-28T14:38:30;11.93;;;7.40;;
7104;SDS011;3594;42.152;24.714;2023-02-28T14:41:00;15.07;;;8.30;;
7104;SDS011;3594;42.152;24.714;2023-02-28T14:43:31;13.37;;;7.13;;
7104;SDS011;3594;42.152;24.714;2023-02-28T14:45:58;11.10;;;6.67;;
7104;SDS011;3594;42.152;24.714;2023-02-28T14:48:25;10.97;;;6.43;;
7104;SDS011;3594;42.152;24.714;2023-02-28T14:50:53;13.20;;;7.03;;
7104;SDS011;3594;42.152;24.714;2023-02-28T14:53:23;10.93;;;5.60;;
7104;SDS011;3594;42.152;24.714;2023-02-28T14:55:52;17.07;;;7.20;;
7104;SDS011;3594;42.152;24.714;2023-02-28T14:58:22;14.20;;;6.90;;
7104;SDS011;3594;42.152;24.714;2023-02-28T15:00:49;15.07;;;6.97;;
7104;SDS011;3594;42.152;24.714;2023-02-28T15:03:30;15.40;;;7.03;;
7104;SDS011;3594;42.152;24.714;2023-02-28T15:06:01;14.77;;;7.13;;
7104;SDS011;3594;42.152;24.714;2023-02-28T15:08:38;13.00;;;6.77;;
7104;SDS011;3594;42.152;24.714;2023-02-28T15:11:16;17.03;;;6.90;;
7104;SDS011;3594;42.152;24.714;2023-02-28T15:14:02;12.80;;;7.37;;
7104;SDS011;3594;42.152;24.714;2023-02-28T15:16:33;19.10;;;7.13;;
7104;SDS011;3594;42.152;24.714;2023-02-28T15:21:44;12.27;;;6.23;;
7104;SDS011;3594;42.152;24.714;2023-02-28T15:24:21;14.23;;;5.67;;
7104;SDS011;3594;42.152;24.714;2023-02-28T15:26:53;10.30;;;5.73;;
7104;SDS011;3594;42.152;24.714;2023-02-28T15:29:23;11.87;;;5.10;;
7104;SDS011;3594;42.152;24.714;2023-02-28T15:34:38;8.00;;;5.47;;
7104;SDS011;3594;42.152;24.714;2023-02-28T15:40:05;12.77;;;5.73;;
7104;SDS011;3594;42.152;24.714;2023-02-28T15:42:37;11.43;;;5.97;;
7104;SDS011;3594;42.152;24.714;2023-02-28T15:45:03;8.73;;;5.43;;
7104;SDS011;3594;42.152;24.714;2023-02-28T15:47:29;7.80;;;4.70;;
7104;SDS011;3594;42.152;24.714;2023-02-28T15:50:08;13.33;;;6.13;;
7104;SDS011;3594;42.152;24.714;2023-02-28T15:52:38;10.60;;;5.93;;
7104;SDS011;3594;42.152;24.714;2023-02-28T15:55:26;8.63;;;5.37;;
7104;SDS011;3594;42.152;24.714;2023-02-28T15:57:53;7.33;;;4.57;;
7104;SDS011;3594;42.152;24.714;2023-02-28T16:00:24;11.43;;;5.80;;
7104;SDS011;3594;42.152;24.714;2023-02-28T16:02:51;10.40;;;5.73;;
7104;SDS011;3594;42.152;24.714;2023-02-28T16:07:58;14.27;;;6.57;;
7104;SDS011;3594;42.152;24.714;2023-02-28T16:10:25;11.33;;;6.10;;
7104;SDS011;3594;42.152;24.714;2023-02-28T16:12:53;9.03;;;5.73;;
7104;SDS011;3594;42.152;24.714;2023-02-28T16:15:22;8.33;;;5.17;;
7104;SDS011;3594;42.152;24.714;2023-02-28T16:17:51;16.97;;;6.63;;
7104;SDS011;3594;42.152;24.714;2023-02-28T16:20:19;9.50;;;5.07;;
7104;SDS011;3594;42.152;24.714;2023-02-28T16:22:49;10.27;;;5.37;;
7104;SDS011;3594;42.152;24.714;2023-02-28T16:25:19;7.20;;;4.83;;
7104;SDS011;3594;42.152;24.714;2023-02-28T16:27:48;13.40;;;5.47;;
7104;SDS011;3594;42.152;24.714;2023-02-28T16:30:23;7.17;;;4.80;;
7104;SDS011;3594;42.152;24.714;2023-02-28T16:32:51;12.33;;;6.23;;
7104;SDS011;3594;42.152;24.714;2023-02-28T16:35:18;12.33;;;5.43;;
7104;SDS011;3594;42.152;24.714;2023-02-28T16:37:44;14.23;;;6.00;;
7104;SDS011;3594;42.152;24.714;2023-02-28T16:40:13;11.30;;;5.43;;
7104;SDS011;3594;42.152;24.714;2023-02-28T16:42:45;9.90;;;5.20;;
7104;SDS011;3594;42.152;24.714;2023-02-28T16:45:16;12.90;;;5.70;;
7104;SDS011;3594;42.152;24.714;2023-02-28T16:47:44;11.60;;;5.70;;
7104;SDS011;3594;42.152;24.714;2023-02-28T16:50:17;18.70;;;6.97;;
7104;SDS011;3594;42.152;24.714;2023-02-28T16:52:45;8.00;;;4.07;;
7104;SDS011;3594;42.152;24.714;2023-02-28T16:55:11;12.33;;;5.70;;
7104;SDS011;3594;42.152;24.714;2023-02-28T16:57:37;8.90;;;6.30;;
7104;SDS011;3594;42.152;24.714;2023-02-28T17:00:06;10.40;;;6.30;;
7104;SDS011;3594;42.152;24.714;2023-02-28T17:02:33;7.93;;;5.00;;
7104;SDS011;3594;42.152;24.714;2023-02-28T17:04:59;9.43;;;5.77;;
7104;SDS011;3594;42.152;24.714;2023-02-28T17:07:25;9.63;;;4.97;;
7104;SDS011;3594;42.152;24.714;2023-02-28T17:09:50;11.07;;;5.77;;
7104;SDS011;3594;42.152;24.714;2023-02-28T17:12:16;7.87;;;4.70;;
7104;SDS011;3594;42.152;24.714;2023-02-28T17:14:41;10.67;;;6.60;;
7104;SDS011;3594;42.152;24.714;2023-02-28T17:17:07;10.50;;;5.43;;
7104;SDS011;3594;42.152;24.714;2023-02-28T17:19:40;7.50;;;4.33;;
7104;SDS011;3594;42.152;24.714;2023-02-28T17:22:08;9.53;;;5.90;;
7104;SDS011;3594;42.152;24.714;2023-02-28T17:24:34;9.67;;;5.70;;
7104;SDS011;3594;42.152;24.714;2023-02-28T17:26:59;10.83;;;5.83;;
7104;SDS011;3594;42.152;24.714;2023-02-28T17:29:25;8.40;;;4.27;;
7104;SDS011;3594;42.152;24.714;2023-02-28T17:31:50;10.07;;;5.67;;
7104;SDS011;3594;42.152;24.714;2023-02-28T17:34:15;6.50;;;4.00;;
7104;SDS011;3594;42.152;24.714;2023-02-28T17:36:43;8.10;;;4.63;;
7104;SDS011;3594;42.152;24.714;2023-02-28T17:39:10;10.03;;;4.60;;
7104;SDS011;3594;42.152;24.714;2023-02-28T17:41:44;7.03;;;4.70;;
7104;SDS011;3594;42.152;24.714;2023-02-28T17:44:10;7.53;;;4.90;;